createdAt,value
2022-11-24T00:01:10.688Z,4.05
2022-11-24T00:03:40.609Z,4.75
2022-11-24T00:06:14.218Z,4.35
2022-11-24T00:08:47.416Z,4.50
2022-11-24T00:11:18.642Z,3.78
2022-11-24T00:13:49.305Z,4.40
2022-11-24T00:16:25.780Z,4.55
2022-11-24T00:18:59.638Z,4.00
2022-11-24T00:24:02.871Z,3.75
2022-11-24T00:26:38.850Z,4.38
2022-11-24T00:29:10.517Z,4.80
2022-11-24T00:31:47.322Z,3.22
2022-11-24T00:34:18.091Z,4.38
2022-11-24T00:36:47.728Z,3.45
2022-11-24T00:39:19.887Z,5.07
2022-11-24T00:41:50.798Z,4.32
2022-11-24T00:44:20.344Z,3.40
2022-11-24T00:46:52.603Z,3.70
2022-11-24T00:49:22.560Z,4.13
2022-11-24T00:51:53.236Z,3.70
2022-11-24T00:54:23.154Z,3.75
2022-11-24T00:56:54.164Z,4.05
2022-11-24T00:59:24.829Z,5.05
2022-11-24T01:01:58.760Z,3.33
2022-11-24T01:04:28.690Z,3.55
2022-11-24T01:06:59.541Z,3.45
2022-11-24T01:09:29.611Z,4.28
2022-11-24T01:12:06.821Z,3.67
2022-11-24T01:14:39.326Z,4.47
2022-11-24T01:17:11.642Z,3.10
2022-11-24T01:19:41.336Z,2.95
2022-11-24T01:22:13.764Z,3.25
2022-11-24T01:24:45.834Z,2.28
2022-11-24T01:27:17.442Z,3.08
2022-11-24T01:29:49.447Z,3.10
2022-11-24T01:32:21.581Z,2.28
2022-11-24T01:34:53.466Z,2.80
2022-11-24T01:37:24.367Z,3.00
2022-11-24T01:39:53.956Z,3.50
2022-11-24T01:42:25.067Z,3.28
2022-11-24T01:45:34.194Z,3.20
2022-11-24T01:48:14.804Z,3.13
2022-11-24T01:50:47.094Z,2.83
2022-11-24T01:53:19.886Z,3.50
2022-11-24T01:55:55.357Z,2.53
2022-11-24T01:58:34.526Z,3.58
2022-11-24T02:01:07.810Z,4.65
2022-11-24T02:03:44.496Z,3.53
2022-11-24T02:06:18.289Z,3.60
2022-11-24T02:11:25.450Z,3.08
2022-11-24T02:13:57.035Z,3.10
2022-11-24T02:16:26.856Z,2.85
2022-11-24T02:18:59.282Z,3.28
2022-11-24T02:21:31.581Z,2.63
2022-11-24T02:24:15.395Z,2.85
2022-11-24T02:26:49.859Z,2.97
2022-11-24T02:29:20.144Z,2.70
2022-11-24T02:31:54.294Z,2.75
2022-11-24T02:34:24.276Z,3.67
2022-11-24T02:36:54.556Z,2.20
2022-11-24T02:39:24.748Z,2.67
2022-11-24T02:42:01.622Z,2.30
2022-11-24T02:44:40.578Z,1.70
2022-11-24T02:47:14.662Z,1.88
2022-11-24T02:49:44.473Z,1.45
2022-11-24T02:52:14.071Z,1.92
2022-11-24T02:54:43.588Z,2.05
2022-11-24T02:57:15.974Z,1.80
2022-11-24T02:59:46.623Z,1.40
2022-11-24T03:02:17.546Z,1.05
2022-11-24T03:04:47.457Z,1.05
2022-11-24T03:07:18.149Z,1.00
2022-11-24T03:09:47.784Z,1.30
2022-11-24T03:12:20.398Z,1.52
2022-11-24T03:14:50.359Z,1.90
2022-11-24T03:17:20.114Z,1.70
2022-11-24T03:19:49.654Z,1.42
2022-11-24T03:22:19.215Z,1.50
2022-11-24T03:24:48.825Z,1.48
2022-11-24T03:27:20.995Z,2.72
2022-11-24T03:29:50.628Z,2.47
2022-11-24T03:32:20.186Z,2.40
2022-11-24T03:34:50.376Z,2.85
2022-11-24T03:37:20.472Z,3.33
2022-11-24T03:39:50.452Z,3.10
2022-11-24T03:42:22.755Z,2.78
2022-11-24T03:44:52.362Z,3.83
2022-11-24T03:47:22.082Z,3.40
2022-11-24T03:49:53.987Z,2.92
2022-11-24T03:52:26.623Z,3.30
2022-11-24T03:54:58.442Z,3.03
2022-11-24T03:57:31.923Z,3.40
2022-11-24T04:00:02.012Z,3.50
2022-11-24T04:02:32.738Z,3.33
2022-11-24T04:05:02.365Z,4.25
2022-11-24T04:07:32.013Z,3.67
2022-11-24T04:10:01.635Z,2.80
2022-11-24T04:12:46.048Z,2.25
2022-11-24T04:15:17.244Z,3.03
2022-11-24T04:17:47.157Z,2.25
2022-11-24T04:20:17.157Z,1.63
2022-11-24T04:22:46.815Z,1.40
2022-11-24T04:25:17.527Z,1.55
2022-11-24T04:27:54.711Z,1.30
2022-11-24T04:30:26.575Z,1.38
2022-11-24T04:32:57.038Z,2.08
2022-11-24T04:35:26.943Z,1.70
2022-11-24T04:37:56.726Z,2.00
2022-11-24T04:40:26.300Z,1.92
2022-11-24T04:42:59.633Z,1.70
2022-11-24T04:45:29.508Z,2.75
2022-11-24T04:47:59.190Z,2.55
2022-11-24T04:50:28.862Z,1.77
2022-11-24T04:52:58.575Z,1.38
2022-11-24T04:55:28.247Z,1.52
2022-11-24T04:58:00.567Z,1.50
2022-11-24T05:00:30.595Z,1.17
2022-11-24T05:03:00.528Z,1.70
2022-11-24T05:05:30.409Z,1.90
2022-11-24T05:08:01.949Z,1.48
2022-11-24T05:10:40.473Z,1.35
2022-11-24T05:13:14.329Z,1.48
2022-11-24T05:15:45.198Z,1.55
2022-11-24T05:18:16.784Z,1.35
2022-11-24T05:20:47.475Z,1.15
2022-11-24T05:23:17.432Z,1.35
2022-11-24T05:25:47.949Z,3.35
2022-11-24T05:28:21.516Z,1.77
2022-11-24T05:30:51.747Z,1.88
2022-11-24T05:33:23.180Z,1.85
2022-11-24T05:35:53.332Z,2.20
2022-11-24T05:38:24.239Z,2.30
2022-11-24T05:40:54.485Z,1.90
2022-11-24T05:43:27.093Z,2.10
2022-11-24T05:45:56.626Z,2.20
2022-11-24T05:48:26.210Z,1.92
2022-11-24T05:50:57.298Z,3.13
2022-11-24T05:53:27.919Z,2.47
2022-11-24T05:55:57.656Z,2.97
2022-11-24T05:58:29.865Z,2.53
2022-11-24T06:00:59.516Z,4.00
2022-11-24T06:03:31.691Z,3.40
2022-11-24T06:06:01.287Z,3.30
2022-11-24T06:08:31.638Z,3.25
2022-11-24T06:11:17.389Z,3.95
2022-11-24T06:13:51.875Z,3.60
2022-11-24T06:16:21.950Z,3.53
2022-11-24T06:18:52.051Z,3.90
2022-11-24T06:21:21.807Z,3.30
2022-11-24T06:23:51.854Z,3.63
2022-11-24T06:26:21.485Z,3.65
2022-11-24T06:28:54.159Z,3.22
2022-11-24T06:31:24.555Z,3.03
2022-11-24T06:33:54.509Z,3.55
2022-11-24T06:36:25.664Z,3.95
2022-11-24T06:38:55.969Z,3.42
2022-11-24T06:41:25.764Z,4.13
2022-11-24T06:43:57.997Z,3.60
2022-11-24T06:46:28.138Z,3.35
2022-11-24T06:48:59.723Z,3.88
2022-11-24T06:51:29.735Z,3.83
2022-11-24T06:53:59.360Z,4.10
2022-11-24T06:56:28.884Z,3.42
2022-11-24T06:59:01.197Z,4.55
2022-11-24T07:01:32.550Z,3.65
2022-11-24T07:04:02.690Z,3.85
2022-11-24T07:06:32.224Z,3.92
2022-11-24T07:09:01.946Z,4.00
2022-11-24T07:11:31.787Z,4.13
2022-11-24T07:14:04.301Z,4.00
2022-11-24T07:16:34.394Z,3.92
2022-11-24T07:19:04.509Z,4.05
2022-11-24T07:21:34.156Z,4.50
2022-11-24T07:24:03.687Z,5.28
2022-11-24T07:26:37.599Z,4.85
2022-11-24T07:29:09.861Z,4.28
2022-11-24T07:31:39.631Z,4.70
2022-11-24T07:34:09.341Z,3.83
2022-11-24T07:36:39.526Z,3.90
2022-11-24T07:39:09.403Z,3.50
2022-11-24T07:41:39.022Z,4.07
2022-11-24T07:44:11.304Z,3.90
2022-11-24T07:46:40.914Z,4.65
2022-11-24T07:49:10.435Z,3.42
2022-11-24T07:51:40.190Z,3.53
2022-11-24T07:54:10.102Z,4.10
2022-11-24T07:56:39.703Z,3.97
2022-11-24T07:59:12.018Z,3.78
2022-11-24T08:01:41.809Z,3.20
2022-11-24T08:04:11.525Z,4.70
2022-11-24T08:06:46.068Z,3.80
2022-11-24T08:09:17.116Z,3.20
2022-11-24T08:11:46.816Z,3.17
2022-11-24T08:14:19.111Z,3.40
2022-11-24T08:16:48.868Z,3.08
2022-11-24T08:19:18.655Z,3.55
2022-11-24T08:21:48.544Z,3.30
2022-11-24T08:24:18.298Z,3.55
2022-11-24T08:26:48.043Z,3.33
2022-11-24T08:29:20.783Z,3.78
2022-11-24T08:31:50.621Z,3.50
2022-11-24T08:34:20.628Z,3.30
2022-11-24T08:36:50.674Z,3.45
2022-11-24T08:39:21.564Z,3.35
2022-11-24T08:41:51.475Z,3.35
2022-11-24T08:44:24.437Z,3.50
2022-11-24T08:46:56.794Z,3.50
2022-11-24T08:49:26.494Z,3.38
2022-11-24T08:51:56.324Z,3.75
2022-11-24T08:54:25.891Z,3.35
2022-11-24T08:56:55.502Z,4.22
2022-11-24T08:59:27.892Z,3.90
2022-11-24T09:01:57.588Z,2.83
2022-11-24T09:04:27.268Z,3.70
2022-11-24T09:06:56.955Z,3.28
2022-11-24T09:09:26.582Z,3.90
2022-11-24T09:11:56.193Z,3.50
2022-11-24T09:14:28.317Z,2.80
2022-11-24T09:16:58.163Z,3.15
2022-11-24T09:19:27.901Z,3.30
2022-11-24T09:21:57.702Z,2.92
2022-11-24T09:24:27.377Z,2.95
2022-11-24T09:26:57.429Z,3.67
2022-11-24T09:29:29.597Z,3.08
2022-11-24T09:32:05.110Z,2.58
2022-11-24T09:34:36.252Z,2.75
2022-11-24T09:37:05.807Z,3.03
2022-11-24T09:39:35.633Z,2.85
2022-11-24T09:42:16.962Z,2.83
2022-11-24T09:45:13.105Z,2.88
2022-11-24T09:47:52.215Z,3.03
2022-11-24T09:50:25.241Z,2.67
2022-11-24T09:53:03.724Z,3.25
2022-11-24T09:55:40.583Z,3.22
2022-11-24T09:58:20.648Z,3.00
2022-11-24T10:00:56.499Z,3.00
2022-11-24T10:03:32.443Z,3.10
2022-11-24T10:06:06.580Z,3.30
2022-11-24T10:08:51.959Z,3.88
2022-11-24T10:11:34.594Z,3.83
2022-11-24T10:14:26.880Z,3.22
2022-11-24T10:17:11.911Z,3.50
2022-11-24T10:19:50.648Z,3.20
2022-11-24T10:22:33.900Z,3.15
2022-11-24T10:25:24.474Z,3.63
2022-11-24T10:28:00.144Z,3.33
2022-11-24T10:30:30.052Z,3.47
2022-11-24T10:33:06.683Z,3.45
2022-11-24T10:35:41.333Z,3.25
2022-11-24T10:38:26.710Z,3.55
2022-11-24T10:41:01.632Z,3.25
2022-11-24T10:43:31.474Z,3.58
2022-11-24T10:46:08.256Z,3.17
2022-11-24T10:48:48.629Z,3.60
2022-11-24T10:51:51.366Z,5.15
2022-11-24T10:54:23.249Z,3.55
2022-11-24T10:56:54.916Z,3.97
2022-11-24T10:59:37.772Z,3.90
2022-11-24T11:02:32.474Z,3.57
2022-11-24T11:05:29.998Z,4.43
2022-11-24T11:08:19.924Z,3.08
2022-11-24T11:10:51.508Z,4.43
2022-11-24T11:13:26.429Z,4.22
2022-11-24T11:15:57.346Z,3.53
2022-11-24T11:18:33.698Z,3.10
2022-11-24T11:21:07.923Z,3.63
2022-11-24T11:23:39.583Z,4.22
2022-11-24T11:26:33.656Z,4.10
2022-11-24T11:34:56.174Z,4.35
2022-11-24T11:37:31.829Z,3.60
2022-11-24T11:40:01.593Z,4.05
2022-11-24T11:45:37.664Z,4.10
2022-11-24T11:48:27.817Z,3.75
2022-11-24T11:51:23.002Z,3.72
2022-11-24T11:54:03.636Z,3.50
2022-11-24T11:56:35.761Z,3.10
2022-11-24T11:59:31.132Z,4.97
2022-11-24T12:02:30.841Z,4.20
2022-11-24T12:05:04.698Z,3.78
2022-11-24T12:10:24.505Z,4.18
2022-11-24T12:13:26.582Z,3.50
2022-11-24T12:15:59.272Z,3.33
2022-11-24T12:18:57.035Z,3.80
2022-11-24T12:21:34.697Z,3.15
2022-11-24T12:24:14.316Z,3.38
2022-11-24T12:26:50.845Z,4.28
2022-11-24T12:29:51.563Z,3.90
2022-11-24T12:32:33.469Z,3.75
2022-11-24T12:35:11.696Z,4.68
2022-11-24T12:37:55.635Z,4.03
2022-11-24T12:43:15.230Z,4.72
2022-11-24T12:45:54.978Z,4.10
2022-11-24T12:48:39.565Z,3.92
2022-11-24T12:51:20.205Z,3.80
2022-11-24T12:53:53.384Z,4.28
2022-11-24T12:56:31.078Z,4.00
2022-11-24T12:59:18.313Z,5.03
2022-11-24T13:01:55.218Z,4.18
2022-11-24T13:04:34.920Z,3.55
2022-11-24T13:07:12.207Z,3.60
2022-11-24T13:10:16.861Z,3.78
2022-11-24T13:15:45.527Z,3.55
2022-11-24T13:18:46.873Z,5.32
2022-11-24T13:21:51.001Z,3.20
2022-11-24T13:24:30.944Z,4.28
2022-11-24T13:27:31.706Z,4.53
2022-11-24T13:30:01.929Z,4.30
2022-11-24T13:33:03.972Z,4.70
2022-11-24T13:35:33.713Z,3.65
2022-11-24T13:38:03.347Z,3.72
2022-11-24T13:41:06.340Z,4.05
2022-11-24T13:43:35.713Z,4.22
2022-11-24T13:46:07.830Z,3.72
2022-11-24T13:49:03.838Z,4.28
2022-11-24T13:51:33.627Z,3.38
2022-11-24T13:54:04.801Z,3.50
2022-11-24T13:56:34.476Z,3.70
2022-11-24T13:59:17.422Z,3.40
2022-11-24T14:01:47.763Z,3.47
2022-11-24T14:04:33.413Z,3.20
2022-11-24T14:07:08.780Z,4.18
2022-11-24T14:09:45.306Z,3.85
2022-11-24T14:12:18.049Z,4.35
2022-11-24T14:14:49.131Z,2.90
2022-11-24T14:17:22.383Z,3.20
2022-11-24T14:19:55.970Z,3.58
2022-11-24T14:22:28.319Z,3.22
2022-11-24T14:25:00.110Z,2.95
2022-11-24T14:27:32.895Z,3.25
2022-11-24T14:30:05.217Z,3.33
2022-11-24T14:32:35.091Z,4.20
2022-11-24T14:35:25.261Z,2.80
2022-11-24T14:37:55.514Z,3.53
2022-11-24T14:40:44.579Z,3.42
2022-11-24T14:43:23.551Z,3.10
2022-11-24T14:45:55.844Z,3.33
2022-11-24T14:48:29.561Z,3.28
2022-11-24T14:53:44.768Z,4.05
2022-11-24T14:56:25.721Z,3.47
2022-11-24T14:58:56.354Z,4.18
2022-11-24T15:01:33.441Z,2.88
2022-11-24T15:04:38.854Z,3.83
2022-11-24T15:07:18.990Z,3.08
2022-11-24T15:09:54.665Z,2.78
2022-11-24T15:12:34.856Z,4.00
2022-11-24T15:15:06.560Z,3.83
2022-11-24T15:18:15.083Z,4.03
2022-11-24T15:24:31.569Z,2.97
2022-11-24T15:33:02.045Z,4.35
2022-11-24T15:35:34.496Z,4.47
2022-11-24T15:38:04.118Z,4.78
2022-11-24T15:40:36.500Z,3.33
2022-11-24T15:43:17.180Z,3.00
2022-11-24T15:45:46.768Z,7.38
2022-11-24T15:48:18.406Z,4.05
2022-11-24T15:50:51.059Z,4.03
2022-11-24T15:53:23.093Z,3.13
2022-11-24T15:55:56.403Z,3.13
2022-11-24T15:58:26.559Z,2.97
2022-11-24T16:00:56.386Z,3.95
2022-11-24T16:06:24.062Z,5.00
2022-11-24T16:08:54.829Z,3.95
2022-11-24T16:11:27.607Z,3.88
2022-11-24T16:13:57.444Z,4.30
2022-11-24T16:16:27.557Z,3.45
2022-11-24T16:18:58.720Z,3.20
2022-11-24T16:21:28.502Z,3.30
2022-11-24T16:23:58.793Z,3.63
2022-11-24T16:26:31.524Z,3.90
2022-11-24T16:29:02.136Z,3.75
2022-11-24T16:31:31.982Z,3.42
2022-11-24T16:34:01.881Z,3.47
2022-11-24T16:36:31.678Z,4.05
2022-11-24T16:39:02.850Z,3.45
2022-11-24T16:41:35.018Z,3.38
2022-11-24T16:44:05.019Z,4.18
2022-11-24T16:46:34.699Z,3.72
2022-11-24T16:49:04.543Z,4.13
2022-11-24T16:51:35.081Z,3.65
2022-11-24T16:54:06.398Z,3.15
2022-11-24T16:56:38.840Z,3.67
2022-11-24T16:59:08.832Z,4.07
2022-11-24T17:01:40.354Z,4.03
2022-11-24T17:04:12.830Z,3.20
2022-11-24T17:06:42.689Z,3.45
2022-11-24T17:09:12.789Z,3.67
2022-11-24T17:11:45.298Z,3.78
2022-11-24T17:14:15.453Z,3.80
2022-11-24T17:16:45.369Z,5.07
2022-11-24T17:19:15.385Z,3.72
2022-11-24T17:21:44.997Z,3.95
2022-11-24T17:24:17.733Z,3.38
2022-11-24T17:26:52.127Z,3.00
2022-11-24T17:29:22.013Z,3.75
2022-11-24T17:31:51.582Z,3.70
2022-11-24T17:34:21.447Z,3.58
2022-11-24T17:36:51.010Z,3.72
2022-11-24T17:39:24.759Z,4.07
2022-11-24T17:41:57.369Z,4.03
2022-11-24T17:44:27.589Z,3.65
2022-11-24T17:46:58.986Z,4.40
2022-11-24T17:49:28.890Z,5.40
2022-11-24T17:51:58.629Z,3.95
2022-11-24T17:54:45.948Z,3.95
2022-11-24T17:57:18.321Z,5.07
2022-11-24T17:59:47.884Z,3.90
2022-11-24T18:02:17.502Z,3.53
2022-11-24T18:04:47.154Z,5.53
2022-11-24T18:07:16.854Z,3.33
2022-11-24T18:09:46.540Z,4.25
2022-11-24T18:12:18.789Z,5.45
2022-11-24T18:14:48.391Z,3.65
2022-11-24T18:17:17.955Z,4.72
2022-11-24T18:19:47.504Z,4.78
2022-11-24T18:22:17.650Z,3.97
2022-11-24T18:24:48.636Z,3.70
2022-11-24T18:27:20.867Z,3.90
2022-11-24T18:29:55.969Z,4.53
2022-11-24T18:32:26.048Z,4.85
2022-11-24T18:34:55.603Z,3.95
2022-11-24T18:37:25.322Z,4.03
2022-11-24T18:39:55.092Z,4.72
2022-11-24T18:42:27.584Z,4.22
2022-11-24T18:44:57.643Z,4.30
2022-11-24T18:47:27.509Z,4.18
2022-11-24T18:50:00.168Z,4.03
2022-11-24T18:52:29.896Z,3.88
2022-11-24T18:55:03.955Z,4.45
2022-11-24T18:57:36.278Z,4.18
2022-11-24T19:00:07.495Z,3.50
2022-11-24T19:02:37.187Z,4.50
2022-11-24T19:05:07.216Z,3.13
2022-11-24T19:07:36.947Z,5.20
2022-11-24T19:10:07.571Z,3.75
2022-11-24T19:12:39.726Z,3.88
2022-11-24T19:15:10.979Z,3.83
2022-11-24T19:17:40.550Z,3.40
2022-11-24T19:20:11.149Z,4.35
2022-11-24T19:22:40.689Z,4.35
2022-11-24T19:25:11.597Z,4.07
2022-11-24T19:27:43.902Z,3.65
2022-11-24T19:30:14.087Z,5.00
2022-11-24T19:32:43.756Z,4.22
2022-11-24T19:35:13.431Z,3.35
2022-11-24T19:37:43.099Z,4.35
2022-11-24T19:40:13.504Z,4.18
2022-11-24T19:42:45.625Z,4.00
2022-11-24T19:45:15.225Z,4.50
2022-11-24T19:47:44.775Z,3.55
2022-11-24T19:50:15.233Z,4.32
2022-11-24T19:52:44.824Z,3.25
2022-11-24T19:55:14.397Z,3.80
2022-11-24T19:57:46.606Z,3.58
2022-11-24T20:00:17.863Z,4.15
2022-11-24T20:02:47.496Z,3.95
2022-11-24T20:05:17.114Z,3.67
2022-11-24T20:07:46.812Z,4.80
2022-11-24T20:10:16.457Z,3.72
2022-11-24T20:12:48.536Z,4.03
2022-11-24T20:15:18.406Z,4.97
2022-11-24T20:17:47.975Z,3.63
2022-11-24T20:20:17.701Z,4.07
2022-11-24T20:22:47.258Z,4.13
2022-11-24T20:25:17.078Z,4.05
2022-11-24T20:27:49.310Z,3.83
2022-11-24T20:30:19.286Z,3.80
2022-11-24T20:32:49.054Z,3.75
2022-11-24T20:35:18.690Z,5.47
2022-11-24T20:37:48.345Z,3.97
2022-11-24T20:40:19.324Z,4.38
2022-11-24T20:42:51.500Z,4.97
2022-11-24T20:45:21.324Z,6.22
2022-11-24T20:47:50.926Z,4.47
2022-11-24T20:50:20.514Z,4.63
2022-11-24T20:52:50.095Z,4.57
2022-11-24T20:55:19.798Z,4.05
2022-11-24T20:57:51.967Z,4.05
2022-11-24T21:00:22.129Z,3.65
2022-11-24T21:02:51.742Z,4.40
2022-11-24T21:05:21.550Z,5.05
2022-11-24T21:07:51.349Z,4.90
2022-11-24T21:10:21.144Z,4.20
2022-11-24T21:12:53.372Z,4.15
2022-11-24T21:15:23.772Z,4.03
2022-11-24T21:17:53.348Z,4.30
2022-11-24T21:20:22.901Z,4.78
2022-11-24T21:22:52.464Z,4.60
2022-11-24T21:25:22.024Z,4.38
2022-11-24T21:27:54.184Z,5.55
2022-11-24T21:30:23.768Z,4.75
2022-11-24T21:32:53.299Z,4.40
2022-11-24T21:35:22.838Z,4.30
2022-11-24T21:37:52.436Z,4.88
2022-11-24T21:40:22.101Z,5.07
2022-11-24T21:42:54.270Z,4.10
2022-11-24T21:45:23.922Z,4.28
2022-11-24T21:47:53.504Z,4.50
2022-11-24T21:50:23.098Z,5.03
2022-11-24T21:52:52.692Z,4.95
2022-11-24T21:55:22.360Z,3.85
2022-11-24T21:57:54.643Z,4.10
2022-11-24T22:00:24.240Z,4.10
2022-11-24T22:02:53.806Z,4.28
2022-11-24T22:05:23.397Z,3.90
2022-11-24T22:07:53.221Z,4.30
2022-11-24T22:10:22.899Z,4.57
2022-11-24T22:12:55.195Z,3.42
2022-11-24T22:15:24.816Z,3.55
2022-11-24T22:17:54.391Z,4.70
2022-11-24T22:20:23.989Z,4.38
2022-11-24T22:22:53.579Z,3.67
2022-11-24T22:25:23.380Z,5.00
2022-11-24T22:27:55.597Z,4.22
2022-11-24T22:30:25.250Z,4.30
2022-11-24T22:32:56.178Z,5.28
2022-11-24T22:35:25.778Z,4.07
2022-11-24T22:37:55.398Z,3.83
2022-11-24T22:40:24.917Z,4.28
2022-11-24T22:42:58.605Z,3.92
2022-11-24T22:47:58.645Z,5.53
2022-11-24T22:50:28.687Z,4.03
2022-11-24T22:52:58.573Z,4.38
2022-11-24T22:55:28.501Z,4.20
2022-11-24T22:58:01.382Z,4.55
2022-11-24T23:00:31.430Z,4.53
2022-11-24T23:03:01.600Z,4.80
2022-11-24T23:05:31.637Z,4.72
2022-11-24T23:08:01.613Z,4.22
2022-11-24T23:10:31.854Z,4.30
2022-11-24T23:13:04.599Z,4.50
2022-11-24T23:15:34.186Z,5.28
2022-11-24T23:18:03.736Z,5.32
2022-11-24T23:20:33.429Z,5.00
2022-11-24T23:23:03.001Z,4.70
2022-11-24T23:25:32.554Z,5.40
2022-11-24T23:28:05.009Z,4.15
2022-11-24T23:30:34.530Z,4.93
2022-11-24T23:33:04.175Z,4.88
2022-11-24T23:35:33.693Z,4.85
2022-11-24T23:38:07.753Z,5.15
2022-11-24T23:40:37.731Z,5.40
2022-11-24T23:43:09.946Z,4.10
2022-11-24T23:45:39.709Z,3.83
2022-11-24T23:48:09.758Z,4.43
2022-11-24T23:50:39.372Z,4.95
2022-11-24T23:53:08.965Z,5.93
2022-11-24T23:55:38.602Z,5.32
2022-11-24T23:58:10.698Z,4.03
